Time,TemperatureF,DewpointF,PressureIn,WindDirection,WindDirectionDegrees,WindSpeedMPH,WindSpeedGustMPH,Humidity,HourlyPrecipIn,Conditions,Clouds,dailyrainin,SoftwareType,DateUTC
2013-07-19 00:01:00,73.6,72.0,30.03,ENE,57,0.0,0.0,95,0.00,,,0.00,WUHU216DAVISVP2,2013-07-19 04:01:00,
2013-07-19 00:02:00,73.5,71.9,30.03,ENE,57,0.0,0.0,95,0.00,,,0.00,WUHU216DAVISVP2,2013-07-19 04:02:00,
2013-07-19 00:07:00,73.4,71.9,30.03,ENE,57,0.0,0.0,95,0.00,,,0.00,WUHU216DAVISVP2,2013-07-19 04:07:00,
2013-07-19 00:12:00,73.3,71.8,30.03,ENE,57,0.0,0.0,95,0.00,,,0.00,WUHU216DAVISVP2,2013-07-19 04:12:00,
2013-07-19 00:17:00,73.4,71.9,30.03,ENE,57,0.0,0.0,95,0.00,,,0.00,WUHU216DAVISVP2,2013-07-19 04:17:00,
2013-07-19 00:22:00,73.5,71.9,30.03,ENE,57,0.0,0.0,95,0.00,,,0.00,WUHU216DAVISVP2,2013-07-19 04:22:00,
2013-07-19 00:27:00,73.5,71.9,30.03,ENE,57,0.0,0.0,95,0.00,,,0.00,WUHU216DAVISVP2,2013-07-19 04:27:00,
2013-07-19 00:32:00,73.5,71.9,30.03,ENE,57,0.0,0.0,95,0.00,,,0.00,WUHU216DAVISVP2,2013-07-19 04:32:00,
2013-07-19 00:37:00,73.5,71.9,30.03,ENE,57,0.0,0.0,95,0.00,,,0.00,WUHU216DAVISVP2,2013-07-19 04:37:00,
2013-07-19 00:42:00,73.5,71.9,30.03,ENE,57,0.0,0.0,95,0.00,,,0.00,WUHU216DAVISVP2,2013-07-19 04:42:00,
2013-07-19 00:47:00,73.1,71.6,30.03,ENE,57,0.0,0.0,95,0.00,,,0.00,WUHU216DAVISVP2,2013-07-19 04:47:00,
2013-07-19 00:52:00,72.7,71.2,30.03,ENE,57,0.0,0.0,95,0.00,,,0.00,WUHU216DAVISVP2,2013-07-19 04:52:00,
2013-07-19 00:57:00,72.7,71.2,30.02,ENE,57,0.0,0.0,95,0.00,,,0.00,WUHU216DAVISVP2,2013-07-19 04:57:00,
2013-07-19 01:02:00,72.7,71.2,30.03,ENE,57,0.0,0.0,95,0.00,,,0.00,WUHU216DAVISVP2,2013-07-19 05:02:00,
2013-07-19 01:07:00,72.9,71.4,30.03,ENE,57,0.0,0.0,95,0.00,,,0.00,WUHU216DAVISVP2,2013-07-19 05:07:00,
2013-07-19 01:12:00,72.5,71.0,30.02,ENE,57,0.0,0.0,95,0.00,,,0.00,WUHU216DAVISVP2,2013-07-19 05:12:00,
2013-07-19 01:17:00,72.8,71.3,30.02,ENE,57,0.0,0.0,95,0.00,,,0.00,WUHU216DAVISVP2,2013-07-19 05:17:00,
2013-07-19 01:22:00,72.9,71.4,30.02,ENE,57,0.0,0.0,95,0.00,,,0.00,WUHU216DAVISVP2,2013-07-19 05:22:00,
2013-07-19 01:27:00,73.0,71.5,30.02,ENE,57,0.0,0.0,95,0.00,,,0.00,WUHU216DAVISVP2,2013-07-19 05:27:00,
2013-07-19 01:32:00,73.1,71.6,30.02,ENE,57,0.0,0.0,95,0.00,,,0.00,WUHU216DAVISVP2,2013-07-19 05:32:00,
2013-07-19 01:37:00,73.0,71.5,30.02,ENE,57,0.0,0.0,95,0.00,,,0.00,WUHU216DAVISVP2,2013-07-19 05:37:00,
2013-07-19 01:42:00,72.8,71.3,30.03,ENE,57,0.0,0.0,95,0.00,,,0.00,WUHU216DAVISVP2,2013-07-19 05:42:00,
2013-07-19 01:47:00,72.9,71.4,30.02,ENE,57,0.0,0.0,95,0.00,,,0.00,WUHU216DAVISVP2,2013-07-19 05:47:00,
2013-07-19 01:52:00,73.0,71.5,30.02,ENE,57,0.0,0.0,95,0.00,,,0.00,WUHU216DAVISVP2,2013-07-19 05:52:00,
2013-07-19 01:57:00,72.8,71.3,30.02,ENE,57,0.0,0.0,95,0.00,,,0.00,WUHU216DAVISVP2,2013-07-19 05:57:00,
2013-07-19 02:02:00,72.8,71.3,30.02,ENE,57,0.0,0.0,95,0.00,,,0.00,WUHU216DAVISVP2,2013-07-19 06:02:00,
2013-07-19 02:07:00,72.9,71.4,30.02,ENE,57,0.0,0.0,95,0.00,,,0.00,WUHU216DAVISVP2,2013-07-19 06:07:00,
2013-07-19 02:12:00,73.0,71.5,30.02,ENE,57,0.0,0.0,95,0.00,,,0.00,WUHU216DAVISVP2,2013-07-19 06:12:00,
2013-07-19 02:17:00,73.1,71.6,30.02,NE,56,0.0,0.0,95,0.00,,,0.00,WUHU216DAVISVP2,2013-07-19 06:17:00,
2013-07-19 02:22:00,73.1,71.6,30.02,ENE,57,0.0,0.0,95,0.00,,,0.00,WUHU216DAVISVP2,2013-07-19 06:22:00,
2013-07-19 02:27:00,73.3,71.8,30.02,ENE,57,0.0,0.0,95,0.00,,,0.00,WUHU216DAVISVP2,2013-07-19 06:27:00,
2013-07-19 02:32:00,73.5,71.9,30.01,ENE,57,0.0,0.0,95,0.00,,,0.00,WUHU216DAVISVP2,2013-07-19 06:32:00,
2013-07-19 02:37:00,73.6,72.0,30.01,ENE,57,0.0,0.0,95,0.00,,,0.00,WUHU216DAVISVP2,2013-07-19 06:37:00,
2013-07-19 02:42:00,73.7,72.1,30.02,ENE,57,1.0,1.0,95,0.00,,,0.00,WUHU216DAVISVP2,2013-07-19 06:42:00,
2013-07-19 02:47:00,73.7,72.1,30.02,ENE,57,0.0,1.0,95,0.00,,,0.00,WUHU216DAVISVP2,2013-07-19 06:47:00,
2013-07-19 02:52:00,73.7,72.1,30.01,ENE,57,0.0,0.0,95,0.00,,,0.00,WUHU216DAVISVP2,2013-07-19 06:52:00,
2013-07-19 02:57:00,73.7,72.1,30.02,ENE,57,0.0,0.0,95,0.00,,,0.00,WUHU216DAVISVP2,2013-07-19 06:57:00,
2013-07-19 03:02:00,73.6,72.0,30.02,ENE,57,0.0,0.0,95,0.00,,,0.00,WUHU216DAVISVP2,2013-07-19 07:02:00,
2013-07-19 03:07:00,73.5,71.9,30.02,ENE,57,0.0,0.0,95,0.00,,,0.00,WUHU216DAVISVP2,2013-07-19 07:07:00,
2013-07-19 03:12:00,73.5,71.9,30.01,ENE,57,0.0,0.0,95,0.00,,,0.00,WUHU216DAVISVP2,2013-07-19 07:12:00,
2013-07-19 03:17:00,73.5,71.9,30.02,ENE,57,0.0,0.0,95,0.00,,,0.00,WUHU216DAVISVP2,2013-07-19 07:17:00,
2013-07-19 03:22:00,73.4,71.9,30.01,ENE,57,0.0,0.0,95,0.00,,,0.00,WUHU216DAVISVP2,2013-07-19 07:22:00,
2013-07-19 03:27:00,73.2,71.7,30.02,ENE,59,0.0,1.0,95,0.00,,,0.00,WUHU216DAVISVP2,2013-07-19 07:27:00,
2013-07-19 03:32:00,73.2,71.7,30.01,ENE,60,0.0,1.0,95,0.00,,,0.00,WUHU216DAVISVP2,2013-07-19 07:32:00,
2013-07-19 03:37:00,73.1,71.6,30.01,ENE,59,0.0,1.0,95,0.00,,,0.00,WUHU216DAVISVP2,2013-07-19 07:37:00,
2013-07-19 03:42:00,73.1,71.6,30.01,ENE,59,0.0,1.0,95,0.00,,,0.00,WUHU216DAVISVP2,2013-07-19 07:42:00,
2013-07-19 03:47:00,73.1,71.6,30.02,ENE,59,0.0,1.0,95,0.00,,,0.00,WUHU216DAVISVP2,2013-07-19 07:47:00,
2013-07-19 03:52:00,73.1,71.6,30.01,ENE,60,0.0,1.0,95,0.00,,,0.00,WUHU216DAVISVP2,2013-07-19 07:52:00,
2013-07-19 03:57:00,72.9,71.4,30.01,ENE,59,0.0,0.0,95,0.00,,,0.00,WUHU216DAVISVP2,2013-07-19 07:57:00,
2013-07-19 04:02:00,72.9,71.4,30.01,ENE,59,0.0,0.0,95,0.00,,,0.00,WUHU216DAVISVP2,2013-07-19 08:02:00,
2013-07-19 04:07:00,72.9,71.4,30.01,ENE,60,0.0,0.0,95,0.00,,,0.00,WUHU216DAVISVP2,2013-07-19 08:07:00,
2013-07-19 04:12:00,72.8,71.3,30.01,ENE,59,1.0,1.0,95,0.00,,,0.00,WUHU216DAVISVP2,2013-07-19 08:12:00,
2013-07-19 04:17:00,72.8,71.3,30.01,ENE,59,0.0,1.0,95,0.00,,,0.00,WUHU216DAVISVP2,2013-07-19 08:17:00,
2013-07-19 04:22:00,72.9,71.4,30.01,ENE,59,0.0,0.0,95,0.00,,,0.00,WUHU216DAVISVP2,2013-07-19 08:22:00,
2013-07-19 04:27:00,72.9,71.4,30.01,ENE,59,0.0,0.0,95,0.00,,,0.00,WUHU216DAVISVP2,2013-07-19 08:27:00,
2013-07-19 04:32:00,72.7,71.2,30.01,ENE,59,1.0,1.0,95,0.00,,,0.00,WUHU216DAVISVP2,2013-07-19 08:32:00,
2013-07-19 04:37:00,72.6,71.1,30.01,ENE,59,0.0,1.0,95,0.00,,,0.00,WUHU216DAVISVP2,2013-07-19 08:37:00,
2013-07-19 04:42:00,72.4,70.9,30.01,ENE,59,0.0,1.0,95,0.00,,,0.00,WUHU216DAVISVP2,2013-07-19 08:42:00,
2013-07-19 04:47:00,72.3,70.8,30.01,ENE,60,0.0,1.0,95,0.00,,,0.00,WUHU216DAVISVP2,2013-07-19 08:47:00,
2013-07-19 04:52:00,72.2,70.7,30.01,ENE,59,0.0,0.0,95,0.00,,,0.00,WUHU216DAVISVP2,2013-07-19 08:52:00,
2013-07-19 04:57:00,72.1,70.6,30.01,ENE,59,0.0,0.0,95,0.00,,,0.00,WUHU216DAVISVP2,2013-07-19 08:57:00,
2013-07-19 05:02:00,72.0,70.5,30.01,ENE,59,0.0,1.0,95,0.00,,,0.00,WUHU216DAVISVP2,2013-07-19 09:02:00,
2013-07-19 05:07:00,72.0,70.5,30.01,ENE,59,0.0,1.0,95,0.00,,,0.00,WUHU216DAVISVP2,2013-07-19 09:07:00,
2013-07-19 05:12:00,71.9,70.4,30.00,ENE,60,0.0,1.0,95,0.00,,,0.00,WUHU216DAVISVP2,2013-07-19 09:12:00,
2013-07-19 05:17:00,71.9,70.4,30.01,ENE,60,0.0,1.0,95,0.00,,,0.00,WUHU216DAVISVP2,2013-07-19 09:17:00,
2013-07-19 05:22:00,71.9,70.4,30.01,ENE,59,0.0,1.0,95,0.00,,,0.00,WUHU216DAVISVP2,2013-07-19 09:22:00,
2013-07-19 05:27:00,72.0,70.5,30.01,ENE,59,0.0,1.0,95,0.00,,,0.00,WUHU216DAVISVP2,2013-07-19 09:27:00,
2013-07-19 05:32:00,72.1,70.6,30.01,ENE,59,0.0,1.0,95,0.00,,,0.00,WUHU216DAVISVP2,2013-07-19 09:32:00,
2013-07-19 05:37:00,72.1,70.6,30.00,ENE,60,0.0,1.0,95,0.00,,,0.00,WUHU216DAVISVP2,2013-07-19 09:37:00,
2013-07-19 05:42:00,71.9,70.4,30.00,ENE,59,0.0,0.0,95,0.00,,,0.00,WUHU216DAVISVP2,2013-07-19 09:42:00,
2013-07-19 05:47:00,71.8,70.3,30.00,ENE,60,0.0,0.0,95,0.00,,,0.00,WUHU216DAVISVP2,2013-07-19 09:47:00,
2013-07-19 05:52:00,71.7,70.2,30.01,East,83,0.0,1.0,95,0.00,,,0.00,WUHU216DAVISVP2,2013-07-19 09:52:00,
2013-07-19 05:57:00,71.6,70.1,30.01,East,83,0.0,1.0,95,0.00,,,0.00,WUHU216DAVISVP2,2013-07-19 09:57:00,
2013-07-19 06:02:00,71.5,70.0,30.01,East,83,0.0,1.0,95,0.00,,,0.00,WUHU216DAVISVP2,2013-07-19 10:02:00,
2013-07-19 06:07:00,71.5,70.0,30.01,East,83,0.0,0.0,95,0.00,,,0.00,WUHU216DAVISVP2,2013-07-19 10:07:00,
2013-07-19 06:12:00,71.5,70.0,30.00,East,83,1.0,1.0,95,0.00,,,0.00,WUHU216DAVISVP2,2013-07-19 10:12:00,
2013-07-19 06:17:00,71.6,70.1,30.01,East,83,0.0,1.0,95,0.00,,,0.00,WUHU216DAVISVP2,2013-07-19 10:17:00,
2013-07-19 06:22:00,71.5,70.0,30.00,East,83,0.0,1.0,95,0.00,,,0.00,WUHU216DAVISVP2,2013-07-19 10:22:00,
2013-07-19 06:27:00,71.4,69.9,30.01,East,83,0.0,1.0,95,0.00,,,0.00,WUHU216DAVISVP2,2013-07-19 10:27:00,
2013-07-19 06:32:00,71.3,69.8,30.00,East,83,0.0,0.0,95,0.00,,,0.00,WUHU216DAVISVP2,2013-07-19 10:32:00,
2013-07-19 06:37:00,71.2,69.7,30.01,East,83,0.0,0.0,95,0.00,,,0.00,WUHU216DAVISVP2,2013-07-19 10:37:00,
2013-07-19 06:42:00,71.2,69.7,30.01,East,83,0.0,0.0,95,0.00,,,0.00,WUHU216DAVISVP2,2013-07-19 10:42:00,
2013-07-19 06:47:00,71.3,69.8,30.01,East,83,0.0,0.0,95,0.00,,,0.00,WUHU216DAVISVP2,2013-07-19 10:47:00,
2013-07-19 06:52:00,71.3,69.8,30.01,East,84,0.0,1.0,95,0.00,,,0.00,WUHU216DAVISVP2,2013-07-19 10:52:00,
2013-07-19 06:57:00,71.3,69.8,30.01,East,83,0.0,1.0,95,0.00,,,0.00,WUHU216DAVISVP2,2013-07-19 10:57:00,
2013-07-19 07:02:00,71.5,70.0,30.01,East,83,0.0,1.0,95,0.00,,,0.00,WUHU216DAVISVP2,2013-07-19 11:02:00,
2013-07-19 07:07:00,71.5,70.0,30.01,East,83,0.0,0.0,95,0.00,,,0.00,WUHU216DAVISVP2,2013-07-19 11:07:00,
2013-07-19 07:12:00,71.7,70.2,30.01,East,83,0.0,0.0,95,0.00,,,0.00,WUHU216DAVISVP2,2013-07-19 11:12:00,
2013-07-19 07:17:00,71.8,70.3,30.01,East,83,0.0,0.0,95,0.00,,,0.00,WUHU216DAVISVP2,2013-07-19 11:17:00,
2013-07-19 07:22:00,71.9,70.4,30.01,East,83,0.0,0.0,95,0.00,,,0.00,WUHU216DAVISVP2,2013-07-19 11:22:00,
2013-07-19 07:27:00,71.9,70.4,30.01,East,83,1.0,1.0,95,0.00,,,0.00,WUHU216DAVISVP2,2013-07-19 11:27:00,
2013-07-19 07:32:00,71.9,70.4,30.01,East,83,0.0,1.0,95,0.00,,,0.00,WUHU216DAVISVP2,2013-07-19 11:32:00,
2013-07-19 07:37:00,72.0,70.5,30.01,East,83,0.0,1.0,95,0.00,,,0.00,WUHU216DAVISVP2,2013-07-19 11:37:00,
2013-07-19 07:42:00,72.1,70.6,30.01,East,83,0.0,1.0,95,0.00,,,0.00,WUHU216DAVISVP2,2013-07-19 11:42:00,
2013-07-19 07:47:00,72.2,70.7,30.01,East,83,0.0,0.0,95,0.00,,,0.00,WUHU216DAVISVP2,2013-07-19 11:47:00,
2013-07-19 07:52:00,72.3,70.8,30.01,East,83,0.0,0.0,95,0.00,,,0.00,WUHU216DAVISVP2,2013-07-19 11:52:00,
2013-07-19 07:57:00,72.5,71.0,30.02,East,83,0.0,1.0,95,0.00,,,0.00,WUHU216DAVISVP2,2013-07-19 11:57:00,
2013-07-19 08:02:00,72.8,71.3,30.02,East,83,1.0,1.0,95,0.00,,,0.00,WUHU216DAVISVP2,2013-07-19 12:02:00,
2013-07-19 08:07:00,73.0,71.5,30.02,East,83,1.0,1.0,95,0.00,,,0.00,WUHU216DAVISVP2,2013-07-19 12:07:00,
2013-07-19 08:12:00,73.3,71.8,30.01,East,83,0.0,1.0,95,0.00,,,0.00,WUHU216DAVISVP2,2013-07-19 12:12:00,
2013-07-19 08:17:00,73.6,72.0,30.02,East,83,0.0,1.0,95,0.00,,,0.00,WUHU216DAVISVP2,2013-07-19 12:17:00,
2013-07-19 08:22:00,74.1,72.5,30.01,East,84,1.0,1.0,95,0.00,,,0.00,WUHU216DAVISVP2,2013-07-19 12:22:00,
2013-07-19 08:27:00,74.6,73.0,30.01,East,83,0.0,1.0,95,0.00,,,0.00,WUHU216DAVISVP2,2013-07-19 12:27:00,
2013-07-19 08:32:00,75.6,74.0,30.01,East,83,1.0,1.0,95,0.00,,,0.00,WUHU216DAVISVP2,2013-07-19 12:32:00,
2013-07-19 08:37:00,76.5,74.6,30.01,East,83,0.0,1.0,94,0.00,,,0.00,WUHU216DAVISVP2,2013-07-19 12:37:00,
2013-07-19 08:42:00,77.2,74.4,30.01,East,83,1.0,1.0,91,0.00,,,0.00,WUHU216DAVISVP2,2013-07-19 12:42:00,
2013-07-19 08:47:00,77.5,74.3,30.01,East,83,0.0,1.0,90,0.00,,,0.00,WUHU216DAVISVP2,2013-07-19 12:47:00,
2013-07-19 08:52:00,78.5,75.0,30.01,East,83,0.0,1.0,89,0.00,,,0.00,WUHU216DAVISVP2,2013-07-19 12:52:00,
2013-07-19 08:57:00,79.2,75.4,30.01,East,83,0.0,1.0,88,0.00,,,0.00,WUHU216DAVISVP2,2013-07-19 12:57:00,
2013-07-19 09:02:00,79.6,75.4,30.01,NE,39,1.0,1.0,87,0.00,,,0.00,WUHU216DAVISVP2,2013-07-19 13:02:00,
2013-07-19 09:07:00,80.2,76.0,30.01,NNE,19,1.0,1.0,87,0.00,,,0.00,WUHU216DAVISVP2,2013-07-19 13:07:00,
2013-07-19 09:12:00,80.8,75.6,30.01,East,89,1.0,1.0,84,0.00,,,0.00,WUHU216DAVISVP2,2013-07-19 13:12:00,
2013-07-19 09:17:00,81.4,75.8,30.01,NNW,342,0.0,1.0,83,0.00,,,0.00,WUHU216DAVISVP2,2013-07-19 13:17:00,
2013-07-19 09:22:00,81.7,75.8,30.01,NNW,342,0.0,1.0,82,0.00,,,0.00,WUHU216DAVISVP2,2013-07-19 13:22:00,
2013-07-19 09:26:00,82.0,76.4,30.01,NNW,342,0.0,1.0,83,0.00,,,0.00,WUHU216DAVISVP2,2013-07-19 13:26:00,
2013-07-19 09:31:00,82.9,76.6,30.01,North,5,1.0,1.0,81,0.00,,,0.00,WUHU216DAVISVP2,2013-07-19 13:31:00,
2013-07-19 09:36:00,83.1,76.4,30.01,East,90,1.2,2.0,80,0.00,,,0.00,WUHU216DAVISVP2,2013-07-19 13:36:00,
2013-07-19 09:41:00,83.3,76.2,30.01,ENE,72,1.0,2.0,79,0.00,,,0.00,WUHU216DAVISVP2,2013-07-19 13:41:00,
2013-07-19 09:46:00,83.9,77.6,30.01,ENE,75,1.2,2.0,81,0.00,,,0.00,WUHU216DAVISVP2,2013-07-19 13:46:00,
2013-07-19 09:51:00,84.4,77.3,30.01,ENE,72,2.0,2.0,79,0.00,,,0.00,WUHU216DAVISVP2,2013-07-19 13:51:00,
2013-07-19 09:56:00,84.5,77.0,30.01,ESE,113,1.0,2.0,78,0.00,,,0.00,WUHU216DAVISVP2,2013-07-19 13:56:00,
2013-07-19 10:01:00,85.4,77.2,30.01,WSW,255,1.5,3.0,76,0.00,,,0.00,WUHU216DAVISVP2,2013-07-19 14:01:00,
2013-07-19 10:06:00,85.6,77.7,30.01,West,264,2.0,3.0,77,0.00,,,0.00,WUHU216DAVISVP2,2013-07-19 14:06:00,
2013-07-19 10:11:00,85.7,77.5,30.00,SW,229,2.0,3.0,76,0.00,,,0.00,WUHU216DAVISVP2,2013-07-19 14:11:00,
2013-07-19 10:16:00,85.7,77.1,30.00,WNW,294,1.0,3.0,75,0.00,,,0.00,WUHU216DAVISVP2,2013-07-19 14:16:00,
2013-07-19 10:21:00,85.7,77.5,30.01,West,266,1.3,3.0,76,0.00,,,0.00,WUHU216DAVISVP2,2013-07-19 14:21:00,
2013-07-19 10:26:00,86.3,77.6,30.00,WSW,238,2.0,3.0,75,0.00,,,0.00,WUHU216DAVISVP2,2013-07-19 14:26:00,
2013-07-19 10:31:00,86.5,77.0,30.00,West,261,1.1,3.0,73,0.00,,,0.00,WUHU216DAVISVP2,2013-07-19 14:31:00,
2013-07-19 10:36:00,86.6,77.5,30.00,NNW,335,3.0,4.0,74,0.00,,,0.00,WUHU216DAVISVP2,2013-07-19 14:36:00,
2013-07-19 10:41:00,86.6,77.1,30.00,NW,314,1.4,4.0,73,0.00,,,0.00,WUHU216DAVISVP2,2013-07-19 14:41:00,
2013-07-19 10:46:00,86.9,77.0,30.00,WSW,237,1.4,4.0,72,0.00,,,0.00,WUHU216DAVISVP2,2013-07-19 14:46:00,
2013-07-19 10:51:00,87.2,77.7,30.00,NW,325,1.3,4.0,73,0.00,,,0.00,WUHU216DAVISVP2,2013-07-19 14:51:00,
2013-07-19 10:56:00,87.7,77.8,30.00,West,274,1.5,3.0,72,0.00,,,0.00,WUHU216DAVISVP2,2013-07-19 14:56:00,
2013-07-19 11:01:00,87.9,79.2,30.00,WNW,290,3.0,6.0,75,0.00,,,0.00,WUHU216DAVISVP2,2013-07-19 15:01:00,
2013-07-19 11:06:00,87.7,78.2,30.00,West,261,2.1,6.0,73,0.00,,,0.00,WUHU216DAVISVP2,2013-07-19 15:06:00,
2013-07-19 11:11:00,87.9,78.8,30.00,WNW,299,2.5,6.0,74,0.00,,,0.00,WUHU216DAVISVP2,2013-07-19 15:11:00,
2013-07-19 11:16:00,87.5,77.6,30.00,West,278,4.0,7.0,72,0.00,,,0.00,WUHU216DAVISVP2,2013-07-19 15:16:00,
2013-07-19 11:21:00,87.4,77.9,30.00,West,276,1.3,7.0,73,0.00,,,0.00,WUHU216DAVISVP2,2013-07-19 15:21:00,
2013-07-19 11:26:00,87.2,77.7,30.00,West,281,4.0,7.0,73,0.00,,,0.00,WUHU216DAVISVP2,2013-07-19 15:26:00,
2013-07-19 11:31:00,87.3,78.2,30.00,South,181,2.0,7.0,74,0.00,,,0.00,WUHU216DAVISVP2,2013-07-19 15:31:00,
2013-07-19 11:36:00,87.9,78.8,30.00,West,274,1.7,6.0,74,0.00,,,0.00,WUHU216DAVISVP2,2013-07-19 15:36:00,
2013-07-19 11:41:00,88.6,79.1,29.99,SE,136,1.5,6.0,73,0.00,,,0.00,WUHU216DAVISVP2,2013-07-19 15:41:00,
2013-07-19 11:46:00,88.9,78.5,29.99,WNW,290,3.0,7.0,71,0.00,,,0.00,WUHU216DAVISVP2,2013-07-19 15:46:00,
2013-07-19 11:51:00,89.1,78.7,29.99,West,281,1.9,7.0,71,0.00,,,0.00,WUHU216DAVISVP2,2013-07-19 15:51:00,
2013-07-19 11:56:00,89.2,78.0,29.99,SW,225,2.0,6.0,69,0.00,,,0.00,WUHU216DAVISVP2,2013-07-19 15:56:00,
2013-07-19 12:01:00,89.3,79.3,29.99,WNW,303,3.0,6.0,72,0.00,,,0.00,WUHU216DAVISVP2,2013-07-19 16:01:00,
2013-07-19 12:06:00,89.4,77.7,29.99,West,272,1.2,5.0,68,0.00,,,0.00,WUHU216DAVISVP2,2013-07-19 16:06:00,
2013-07-19 12:11:00,89.6,78.4,29.99,West,262,1.8,5.0,69,0.00,,,0.00,WUHU216DAVISVP2,2013-07-19 16:11:00,
2013-07-19 12:16:00,90.2,78.5,29.98,WSW,243,3.0,5.0,68,0.00,,,0.00,WUHU216DAVISVP2,2013-07-19 16:16:00,
2013-07-19 12:21:00,90.6,78.9,29.98,WNW,290,1.5,5.0,68,0.00,,,0.00,WUHU216DAVISVP2,2013-07-19 16:21:00,
2013-07-19 12:26:00,90.6,78.4,29.98,West,262,3.0,6.0,67,0.00,,,0.00,WUHU216DAVISVP2,2013-07-19 16:26:00,
2013-07-19 12:31:00,89.6,77.0,29.98,West,268,2.2,8.0,66,0.00,,,0.00,WUHU216DAVISVP2,2013-07-19 16:31:00,
2013-07-19 12:36:00,89.7,78.5,29.97,West,279,1.2,8.0,69,0.00,,,0.00,WUHU216DAVISVP2,2013-07-19 16:36:00,
2013-07-19 12:41:00,90.3,77.7,29.96,SW,229,2.0,7.0,66,0.00,,,0.00,WUHU216DAVISVP2,2013-07-19 16:41:00,
2013-07-19 12:46:00,90.6,77.1,29.96,West,268,2.3,7.0,64,0.00,,,0.00,WUHU216DAVISVP2,2013-07-19 16:46:00,
2013-07-19 12:51:00,90.6,78.4,29.96,West,271,2.7,5.0,67,0.00,,,0.00,WUHU216DAVISVP2,2013-07-19 16:51:00,
2013-07-19 12:56:00,91.0,78.4,29.96,WSW,241,1.6,5.0,66,0.00,,,0.00,WUHU216DAVISVP2,2013-07-19 16:56:00,
2013-07-19 13:01:00,91.6,77.7,29.97,ESE,123,3.0,5.0,64,0.00,,,0.00,WUHU216DAVISVP2,2013-07-19 17:01:00,
2013-07-19 13:06:00,91.8,77.9,29.96,WNW,295,3.0,5.0,64,0.00,,,0.00,WUHU216DAVISVP2,2013-07-19 17:06:00,
2013-07-19 13:11:00,90.4,77.0,29.95,West,271,3.6,7.0,65,0.00,,,0.00,WUHU216DAVISVP2,2013-07-19 17:11:00,
2013-07-19 13:16:00,89.0,76.6,29.96,West,281,2.4,7.0,67,0.00,,,0.00,WUHU216DAVISVP2,2013-07-19 17:16:00,
2013-07-19 13:21:00,88.6,78.0,29.96,West,262,2.1,7.0,71,0.00,,,0.00,WUHU216DAVISVP2,2013-07-19 17:21:00,
2013-07-19 13:26:00,89.1,77.6,29.96,WSW,252,1.5,7.0,69,0.00,,,0.00,WUHU216DAVISVP2,2013-07-19 17:26:00,
2013-07-19 13:31:00,90.2,77.3,29.95,WSW,250,2.2,6.0,66,0.00,,,0.00,WUHU216DAVISVP2,2013-07-19 17:31:00,
2013-07-19 13:36:00,91.2,77.6,29.95,West,273,3.9,7.0,64,0.00,,,0.00,WUHU216DAVISVP2,2013-07-19 17:36:00,
2013-07-19 13:41:00,90.5,77.0,29.95,SSW,204,3.1,7.0,64,0.00,,,0.00,WUHU216DAVISVP2,2013-07-19 17:41:00,
2013-07-19 13:46:00,88.9,75.4,29.95,WSW,249,3.4,8.0,64,0.00,,,0.00,WUHU216DAVISVP2,2013-07-19 17:46:00,
2013-07-19 13:51:00,86.9,74.5,29.96,SW,225,3.0,9.0,66,0.00,,,0.00,WUHU216DAVISVP2,2013-07-19 17:51:00,
2013-07-19 13:56:00,83.8,72.4,29.97,WNW,285,4.2,9.0,68,0.00,,,0.00,WUHU216DAVISVP2,2013-07-19 17:56:00,
2013-07-19 14:01:00,80.7,71.4,29.99,WNW,283,2.1,9.0,73,0.00,,,0.00,WUHU216DAVISVP2,2013-07-19 18:01:00,
2013-07-19 14:06:00,78.6,70.6,30.00,WNW,300,2.4,9.0,76,0.00,,,0.00,WUHU216DAVISVP2,2013-07-19 18:06:00,
2013-07-19 14:11:00,77.8,70.5,29.99,West,271,4.3,9.0,78,0.00,,,0.00,WUHU216DAVISVP2,2013-07-19 18:11:00,
2013-07-19 14:16:00,77.2,70.3,29.99,West,278,1.8,7.0,79,0.00,,,0.00,WUHU216DAVISVP2,2013-07-19 18:16:00,
2013-07-19 14:21:00,76.5,70.0,29.98,West,270,2.9,8.0,80,0.00,,,0.00,WUHU216DAVISVP2,2013-07-19 18:21:00,
2013-07-19 14:26:00,76.2,70.0,29.98,West,274,2.0,8.0,81,0.00,,,0.00,WUHU216DAVISVP2,2013-07-19 18:26:00,
2013-07-19 14:31:00,75.6,69.8,29.98,WNW,284,1.5,8.0,82,0.00,,,0.00,WUHU216DAVISVP2,2013-07-19 18:31:00,
2013-07-19 14:36:00,75.2,69.4,29.98,WNW,288,1.2,8.0,82,0.00,,,0.00,WUHU216DAVISVP2,2013-07-19 18:36:00,
2013-07-19 14:41:00,74.8,69.4,29.97,WNW,294,1.0,5.0,83,0.00,,,0.00,WUHU216DAVISVP2,2013-07-19 18:41:00,
2013-07-19 14:46:00,74.7,69.9,29.96,ESE,103,1.0,4.0,85,0.00,,,0.00,WUHU216DAVISVP2,2013-07-19 18:46:00,
2013-07-19 14:51:00,74.0,70.2,29.97,ESE,103,0.0,2.0,88,0.00,,,0.00,WUHU216DAVISVP2,2013-07-19 18:51:00,
2013-07-19 14:56:00,73.4,70.3,29.97,ESE,103,1.0,1.0,90,0.00,,,0.00,WUHU216DAVISVP2,2013-07-19 18:56:00,
2013-07-19 15:01:00,72.8,69.7,29.96,East,86,1.0,2.0,90,0.00,,,0.00,WUHU216DAVISVP2,2013-07-19 19:01:00,
2013-07-19 15:06:00,72.7,69.9,29.96,East,86,0.0,2.0,91,0.00,,,0.00,WUHU216DAVISVP2,2013-07-19 19:06:00,
2013-07-19 15:11:00,72.6,70.1,29.96,East,86,0.0,2.0,92,0.00,,,0.00,WUHU216DAVISVP2,2013-07-19 19:11:00,
2013-07-19 15:16:00,72.6,70.1,29.96,East,86,0.0,2.0,92,0.00,,,0.00,WUHU216DAVISVP2,2013-07-19 19:16:00,
2013-07-19 15:21:00,72.5,70.0,29.96,East,86,0.0,1.0,92,0.00,,,0.00,WUHU216DAVISVP2,2013-07-19 19:21:00,
2013-07-19 15:26:00,72.6,70.4,29.96,East,86,1.0,1.0,93,0.00,,,0.00,WUHU216DAVISVP2,2013-07-19 19:26:00,
2013-07-19 15:31:00,72.4,69.9,29.96,East,86,1.0,2.0,92,0.00,,,0.00,WUHU216DAVISVP2,2013-07-19 19:31:00,
2013-07-19 15:36:00,72.4,70.2,29.96,North,349,1.0,2.0,93,0.00,,,0.00,WUHU216DAVISVP2,2013-07-19 19:36:00,
2013-07-19 15:41:00,72.4,70.2,29.96,North,349,1.0,1.0,93,0.00,,,0.00,WUHU216DAVISVP2,2013-07-19 19:41:00,
2013-07-19 15:46:00,72.6,70.4,29.96,NNE,12,0.0,1.0,93,0.00,,,0.00,WUHU216DAVISVP2,2013-07-19 19:46:00,
2013-07-19 15:51:00,72.7,70.5,29.95,East,79,0.0,1.0,93,0.00,,,0.00,WUHU216DAVISVP2,2013-07-19 19:51:00,
2013-07-19 15:56:00,72.9,70.7,29.95,East,79,0.0,1.0,93,0.01,,,0.01,WUHU216DAVISVP2,2013-07-19 19:56:00,
2013-07-19 16:01:00,73.0,70.8,29.94,East,88,1.0,1.0,93,0.01,,,0.01,WUHU216DAVISVP2,2013-07-19 20:01:00,
2013-07-19 16:06:00,73.3,71.4,29.94,East,88,0.0,1.0,94,0.01,,,0.01,WUHU216DAVISVP2,2013-07-19 20:06:00,
2013-07-19 16:11:00,73.6,71.7,29.94,East,88,0.0,1.0,94,0.01,,,0.01,WUHU216DAVISVP2,2013-07-19 20:11:00,
2013-07-19 16:16:00,73.8,71.6,29.94,East,86,1.0,1.0,93,0.01,,,0.01,WUHU216DAVISVP2,2013-07-19 20:16:00,
2013-07-19 16:21:00,74.0,71.5,29.94,WSW,254,1.1,2.0,92,0.01,,,0.01,WUHU216DAVISVP2,2013-07-19 20:21:00,
2013-07-19 16:26:00,74.2,71.4,29.93,WSW,254,0.0,2.0,91,0.01,,,0.01,WUHU216DAVISVP2,2013-07-19 20:26:00,
2013-07-19 16:31:00,74.5,72.0,29.93,WSW,255,0.0,2.0,92,0.01,,,0.01,WUHU216DAVISVP2,2013-07-19 20:31:00,
2013-07-19 16:36:00,74.6,71.8,29.93,WSW,255,0.0,2.0,91,0.01,,,0.01,WUHU216DAVISVP2,2013-07-19 20:36:00,
2013-07-19 16:41:00,74.8,72.0,29.93,WSW,254,0.0,1.0,91,0.01,,,0.01,WUHU216DAVISVP2,2013-07-19 20:41:00,
2013-07-19 16:46:00,75.0,72.5,29.93,WSW,254,0.0,1.0,92,0.01,,,0.01,WUHU216DAVISVP2,2013-07-19 20:46:00,
2013-07-19 16:51:00,75.0,72.5,29.93,WSW,255,0.0,1.0,92,0.01,,,0.01,WUHU216DAVISVP2,2013-07-19 20:51:00,
2013-07-19 16:56:00,75.1,72.3,29.93,WSW,255,0.0,1.0,91,0.00,,,0.01,WUHU216DAVISVP2,2013-07-19 20:56:00,
2013-07-19 17:01:00,75.2,72.4,29.93,WSW,254,0.0,1.0,91,0.00,,,0.01,WUHU216DAVISVP2,2013-07-19 21:01:00,
2013-07-19 17:06:00,75.1,72.0,29.93,WSW,255,0.0,1.0,90,0.00,,,0.01,WUHU216DAVISVP2,2013-07-19 21:06:00,
2013-07-19 17:11:00,75.3,72.5,29.93,WSW,255,0.0,1.0,91,0.00,,,0.01,WUHU216DAVISVP2,2013-07-19 21:11:00,
2013-07-19 17:16:00,75.4,72.6,29.93,WSW,255,1.0,1.0,91,0.00,,,0.01,WUHU216DAVISVP2,2013-07-19 21:16:00,
2013-07-19 17:21:00,75.3,72.8,29.93,WSW,255,0.0,1.0,92,0.00,,,0.01,WUHU216DAVISVP2,2013-07-19 21:21:00,
2013-07-19 17:26:00,75.2,72.4,29.93,WSW,254,0.0,1.0,91,0.00,,,0.01,WUHU216DAVISVP2,2013-07-19 21:26:00,
2013-07-19 17:31:00,75.1,72.0,29.92,WSW,255,0.0,1.0,90,0.00,,,0.01,WUHU216DAVISVP2,2013-07-19 21:31:00,
2013-07-19 17:36:00,75.3,72.2,29.92,WSW,254,0.0,1.0,90,0.00,,,0.01,WUHU216DAVISVP2,2013-07-19 21:36:00,
2013-07-19 17:41:00,75.4,72.3,29.92,WSW,255,0.0,1.0,90,0.00,,,0.01,WUHU216DAVISVP2,2013-07-19 21:41:00,
2013-07-19 17:46:00,75.5,72.4,29.92,WSW,254,0.0,1.0,90,0.00,,,0.01,WUHU216DAVISVP2,2013-07-19 21:46:00,
2013-07-19 17:51:00,75.5,72.4,29.92,WSW,255,0.0,1.0,90,0.00,,,0.01,WUHU216DAVISVP2,2013-07-19 21:51:00,
2013-07-19 17:56:00,75.6,73.1,29.93,WSW,254,0.0,1.0,92,0.00,,,0.01,WUHU216DAVISVP2,2013-07-19 21:56:00,
2013-07-19 18:01:00,75.6,73.1,29.93,SW,221,0.0,1.0,92,0.00,,,0.01,WUHU216DAVISVP2,2013-07-19 22:01:00,
2013-07-19 18:06:00,75.6,72.8,29.93,SW,222,0.0,0.0,91,0.00,,,0.01,WUHU216DAVISVP2,2013-07-19 22:06:00,
2013-07-19 18:11:00,75.6,73.1,29.93,SW,221,1.0,1.0,92,0.00,,,0.01,WUHU216DAVISVP2,2013-07-19 22:11:00,
2013-07-19 18:16:00,75.7,72.9,29.93,SW,222,0.0,2.0,91,0.00,,,0.01,WUHU216DAVISVP2,2013-07-19 22:16:00,
2013-07-19 18:21:00,75.9,73.1,29.93,SW,222,0.0,2.0,91,0.00,,,0.01,WUHU216DAVISVP2,2013-07-19 22:21:00,
2013-07-19 18:26:00,75.9,73.1,29.93,SW,222,0.0,2.0,91,0.00,,,0.01,WUHU216DAVISVP2,2013-07-19 22:26:00,
2013-07-19 18:31:00,75.9,73.4,29.93,SW,222,0.0,1.0,92,0.00,,,0.01,WUHU216DAVISVP2,2013-07-19 22:31:00,
2013-07-19 18:36:00,75.9,73.4,29.93,SW,222,0.0,1.0,92,0.00,,,0.01,WUHU216DAVISVP2,2013-07-19 22:36:00,
2013-07-19 18:41:00,76.0,73.5,29.93,SW,222,0.0,1.0,92,0.00,,,0.01,WUHU216DAVISVP2,2013-07-19 22:41:00,
2013-07-19 18:46:00,76.0,73.2,29.92,SW,222,0.0,1.0,91,0.00,,,0.01,WUHU216DAVISVP2,2013-07-19 22:46:00,
2013-07-19 18:51:00,76.1,73.6,29.92,SW,222,0.0,1.0,92,0.00,,,0.01,WUHU216DAVISVP2,2013-07-19 22:51:00,
2013-07-19 18:56:00,76.1,73.3,29.92,SW,221,1.0,1.0,91,0.00,,,0.01,WUHU216DAVISVP2,2013-07-19 22:56:00,
2013-07-19 19:01:00,76.2,73.4,29.91,SW,221,0.0,1.0,91,0.00,,,0.01,WUHU216DAVISVP2,2013-07-19 23:01:00,
2013-07-19 19:06:00,76.3,73.5,29.91,SW,221,0.0,1.0,91,0.00,,,0.01,WUHU216DAVISVP2,2013-07-19 23:06:00,
2013-07-19 19:11:00,76.2,73.4,29.91,SW,221,0.0,1.0,91,0.00,,,0.01,WUHU216DAVISVP2,2013-07-19 23:11:00,
2013-07-19 19:16:00,76.1,73.3,29.91,SW,221,0.0,0.0,91,0.00,,,0.01,WUHU216DAVISVP2,2013-07-19 23:16:00,
2013-07-19 19:21:00,76.1,73.3,29.91,SW,221,1.0,1.0,91,0.00,,,0.01,WUHU216DAVISVP2,2013-07-19 23:21:00,
2013-07-19 19:26:00,76.0,73.5,29.91,SW,221,0.0,1.0,92,0.00,,,0.01,WUHU216DAVISVP2,2013-07-19 23:26:00,
2013-07-19 19:31:00,76.0,73.5,29.91,SW,221,0.0,1.0,92,0.00,,,0.01,WUHU216DAVISVP2,2013-07-19 23:31:00,
2013-07-19 19:36:00,76.0,73.5,29.91,SW,221,0.0,1.0,92,0.00,,,0.01,WUHU216DAVISVP2,2013-07-19 23:36:00,
2013-07-19 19:41:00,75.9,73.4,29.90,SW,221,0.0,0.0,92,0.00,,,0.01,WUHU216DAVISVP2,2013-07-19 23:41:00,
2013-07-19 19:46:00,75.7,73.2,29.90,SW,221,0.0,0.0,92,0.00,,,0.01,WUHU216DAVISVP2,2013-07-19 23:46:00,
2013-07-19 19:51:00,75.8,73.3,29.90,SW,221,0.0,0.0,92,0.00,,,0.01,WUHU216DAVISVP2,2013-07-19 23:51:00,
2013-07-19 19:56:00,75.7,73.2,29.90,SW,221,0.0,0.0,92,0.00,,,0.01,WUHU216DAVISVP2,2013-07-19 23:56:00,
2013-07-19 20:01:00,75.5,73.0,29.91,SW,221,0.0,0.0,92,0.00,,,0.01,WUHU216DAVISVP2,2013-07-20 00:01:00,
2013-07-19 20:06:00,75.4,73.2,29.92,SW,221,0.0,0.0,93,0.00,,,0.01,WUHU216DAVISVP2,2013-07-20 00:06:00,
2013-07-19 20:11:00,75.1,72.9,29.93,SW,221,0.0,0.0,93,0.00,,,0.01,WUHU216DAVISVP2,2013-07-20 00:11:00,
2013-07-19 20:16:00,74.9,72.7,29.93,SW,221,0.0,0.0,93,0.00,,,0.01,WUHU216DAVISVP2,2013-07-20 00:16:00,
2013-07-19 20:21:00,74.7,72.8,29.93,SW,221,0.0,0.0,94,0.00,,,0.01,WUHU216DAVISVP2,2013-07-20 00:21:00,
2013-07-19 20:26:00,74.6,72.7,29.93,SW,221,0.0,0.0,94,0.00,,,0.01,WUHU216DAVISVP2,2013-07-20 00:26:00,
2013-07-19 20:31:00,74.4,72.5,29.93,SW,221,0.0,0.0,94,0.00,,,0.01,WUHU216DAVISVP2,2013-07-20 00:31:00,
2013-07-19 20:36:00,74.2,72.3,29.93,SW,221,0.0,1.0,94,0.00,,,0.01,WUHU216DAVISVP2,2013-07-20 00:36:00,
2013-07-19 20:41:00,74.0,72.1,29.94,SW,221,0.0,1.0,94,0.00,,,0.01,WUHU216DAVISVP2,2013-07-20 00:41:00,
2013-07-19 20:46:00,73.9,72.0,29.95,SW,221,1.0,1.0,94,0.00,,,0.01,WUHU216DAVISVP2,2013-07-20 00:46:00,
2013-07-19 20:51:00,74.0,72.4,29.97,West,269,4.0,5.0,95,0.00,,,0.01,WUHU216DAVISVP2,2013-07-20 00:51:00,
2013-07-19 20:56:00,74.2,72.3,29.97,West,281,6.0,6.0,94,0.00,,,0.01,WUHU216DAVISVP2,2013-07-20 00:56:00,
2013-07-19 21:01:00,74.7,72.5,29.97,West,267,3.1,7.0,93,0.00,,,0.01,WUHU216DAVISVP2,2013-07-20 01:01:00,
2013-07-19 21:06:00,75.2,72.1,29.97,WNW,291,6.0,9.0,90,0.00,,,0.01,WUHU216DAVISVP2,2013-07-20 01:06:00,
2013-07-19 21:11:00,75.7,71.6,29.98,WSW,250,3.5,9.0,87,0.00,,,0.01,WUHU216DAVISVP2,2013-07-20 01:11:00,
2013-07-19 21:12:00,75.7,71.6,29.98,WSW,240,2.8,9.0,87,0.00,,,0.01,WUHU216DAVISVP2,2013-07-20 01:12:00,
2013-07-19 21:17:00,75.6,70.5,29.99,WSW,255,3.9,10.0,84,0.00,,,0.01,WUHU216DAVISVP2,2013-07-20 01:17:00,
2013-07-19 21:22:00,75.2,69.7,29.99,WSW,258,1.5,10.0,83,0.00,,,0.01,WUHU216DAVISVP2,2013-07-20 01:22:00,
2013-07-19 21:27:00,74.6,68.5,29.99,West,260,5.0,10.0,81,0.00,,,0.01,WUHU216DAVISVP2,2013-07-20 01:27:00,
2013-07-19 21:32:00,73.9,68.1,29.98,WSW,241,3.0,10.0,82,0.00,,,0.01,WUHU216DAVISVP2,2013-07-20 01:32:00,
2013-07-19 21:37:00,73.5,67.7,29.97,WSW,254,1.2,8.0,82,0.00,,,0.01,WUHU216DAVISVP2,2013-07-20 01:37:00,
2013-07-19 21:42:00,73.1,67.7,29.97,SE,129,1.0,8.0,83,0.00,,,0.01,WUHU216DAVISVP2,2013-07-20 01:42:00,
2013-07-19 21:47:00,72.6,67.5,29.96,ESE,119,1.0,7.0,84,0.00,,,0.01,WUHU216DAVISVP2,2013-07-20 01:47:00,
2013-07-19 21:52:00,72.0,67.3,29.96,ESE,121,1.0,4.0,85,0.00,,,0.01,WUHU216DAVISVP2,2013-07-20 01:52:00,
2013-07-19 21:57:00,71.5,67.4,29.96,ESE,121,1.0,4.0,87,0.00,,,0.01,WUHU216DAVISVP2,2013-07-20 01:57:00,
2013-07-19 22:02:00,70.9,67.2,29.96,ESE,123,0.0,3.0,88,0.00,,,0.01,WUHU216DAVISVP2,2013-07-20 02:02:00,
2013-07-19 22:07:00,70.5,66.8,29.95,SW,224,1.0,3.0,88,0.00,,,0.01,WUHU216DAVISVP2,2013-07-20 02:07:00,
2013-07-19 22:12:00,70.6,66.5,29.95,ESE,122,1.0,3.0,87,0.00,,,0.01,WUHU216DAVISVP2,2013-07-20 02:12:00,
2013-07-19 22:17:00,70.6,66.9,29.94,NW,305,1.6,4.0,88,0.00,,,0.01,WUHU216DAVISVP2,2013-07-20 02:17:00,
2013-07-19 22:22:00,70.5,66.8,29.94,NW,304,0.0,4.0,88,0.00,,,0.01,WUHU216DAVISVP2,2013-07-20 02:22:00,
2013-07-19 22:27:00,70.9,67.2,29.93,ENE,73,1.2,4.0,88,0.00,,,0.01,WUHU216DAVISVP2,2013-07-20 02:27:00,
2013-07-19 22:32:00,70.8,67.4,29.93,ENE,74,1.0,4.0,89,0.00,,,0.01,WUHU216DAVISVP2,2013-07-20 02:32:00,
2013-07-19 22:37:00,70.4,67.6,29.93,ENE,72,0.0,3.0,91,0.01,,,0.02,WUHU216DAVISVP2,2013-07-20 02:37:00,
2013-07-19 22:42:00,69.9,67.4,29.92,East,88,1.0,3.0,92,0.02,,,0.03,WUHU216DAVISVP2,2013-07-20 02:42:00,
2013-07-19 22:47:00,69.7,67.9,29.92,ENE,67,2.0,4.0,94,0.02,,,0.03,WUHU216DAVISVP2,2013-07-20 02:47:00,
2013-07-19 22:52:00,69.6,67.8,29.91,NNW,345,0.0,4.0,94,0.02,,,0.03,WUHU216DAVISVP2,2013-07-20 02:52:00,
2013-07-19 22:57:00,69.6,67.8,29.91,ESE,123,1.0,3.0,94,0.02,,,0.03,WUHU216DAVISVP2,2013-07-20 02:57:00,
2013-07-19 23:02:00,69.7,68.2,29.91,SE,124,0.0,3.0,95,0.02,,,0.03,WUHU216DAVISVP2,2013-07-20 03:02:00,
2013-07-19 23:07:00,69.6,67.8,29.90,SE,124,0.0,2.0,94,0.03,,,0.04,WUHU216DAVISVP2,2013-07-20 03:07:00,
2013-07-19 23:12:00,69.5,68.0,29.90,SE,124,0.0,1.0,95,0.03,,,0.04,WUHU216DAVISVP2,2013-07-20 03:12:00,
2013-07-19 23:17:00,69.6,68.1,29.90,SE,124,0.0,0.0,95,0.03,,,0.04,WUHU216DAVISVP2,2013-07-20 03:17:00,
2013-07-19 23:22:00,69.5,68.0,29.90,NW,308,0.0,1.0,95,0.03,,,0.04,WUHU216DAVISVP2,2013-07-20 03:22:00,
2013-07-19 23:27:00,69.4,67.9,29.90,NW,309,0.0,1.0,95,0.03,,,0.04,WUHU216DAVISVP2,2013-07-20 03:27:00,
2013-07-19 23:32:00,69.4,67.9,29.90,NW,309,0.0,1.0,95,0.03,,,0.04,WUHU216DAVISVP2,2013-07-20 03:32:00,
2013-07-19 23:37:00,69.3,67.8,29.90,NW,309,0.0,1.0,95,0.02,,,0.04,WUHU216DAVISVP2,2013-07-20 03:37:00,
2013-07-19 23:42:00,69.3,67.8,29.90,NW,309,0.0,0.0,95,0.01,,,0.04,WUHU216DAVISVP2,2013-07-20 03:42:00,
2013-07-19 23:47:00,69.2,67.7,29.90,NW,309,0.0,0.0,95,0.01,,,0.04,WUHU216DAVISVP2,2013-07-20 03:47:00,
2013-07-19 23:52:00,69.3,67.8,29.90,NW,309,0.0,0.0,95,0.02,,,0.05,WUHU216DAVISVP2,2013-07-20 03:52:00,
2013-07-19 23:57:00,69.3,67.8,29.90,NW,309,0.0,0.0,95,0.02,,,0.05,WUHU216DAVISVP2,2013-07-20 03:57:00,